Time;durP1;ratioP1;P1;durP2;ratioP2;P2;SDS_P1;SDS_P2;PMS_P1;PMS_P2;Temp;Humidity;BMP_temperature;BMP_pressure;BME280_temperature;BME280_humidity;BME280_pressure;Samples;Min_cycle;Max_cycle;Signal;HPM_P1;HPM_P2
2023/03/28 00:00:48;;;;;;;6.30;2.28;;;4.60;99.90;;;;;;5032028;28;20029;-46
2023/03/28 00:03:17;;;;;;;4.90;2.05;;;4.50;99.90;;;;;;5032055;28;20022;-44
2023/03/28 00:05:44;;;;;;;9.07;1.80;;;4.50;99.90;;;;;;5032352;28;20098;-45
2023/03/28 00:08:10;;;;;;;11.30;2.20;;;4.50;99.90;;;;;;5032174;28;20091;-44
2023/03/28 00:10:36;;;;;;;6.47;2.42;;;4.50;99.90;;;;;;5031979;28;20033;-47
2023/03/28 00:13:02;;;;;;;4.90;1.60;;;4.50;99.90;;;;;;5031756;28;20470;-44
2023/03/28 00:15:29;;;;;;;6.38;1.85;;;4.50;99.90;;;;;;5031961;28;20600;-46
2023/03/28 00:17:54;;;;;;;6.07;1.92;;;4.50;99.90;;;;;;5032169;28;20033;-46
2023/03/28 00:20:20;;;;;;;2.90;1.40;;;4.50;99.90;;;;;;5031766;28;20692;-48
2023/03/28 00:22:46;;;;;;;4.13;1.60;;;4.50;99.90;;;;;;5032023;28;20390;-49
2023/03/28 00:25:13;;;;;;;4.82;1.58;;;4.60;99.90;;;;;;5031817;28;20080;-49
2023/03/28 00:27:38;;;;;;;3.95;1.30;;;4.50;99.90;;;;;;5031881;28;20048;-49
2023/03/28 00:30:05;;;;;;;7.35;1.52;;;4.60;99.90;;;;;;5031721;28;20037;-48
2023/03/28 00:32:30;;;;;;;4.20;1.65;;;4.70;99.90;;;;;;5031524;28;20470;-50
2023/03/28 00:34:56;;;;;;;5.03;1.40;;;4.70;99.90;;;;;;5031770;28;20026;-45
2023/03/28 00:37:22;;;;;;;4.55;1.27;;;4.80;99.90;;;;;;5031427;28;20033;-47
2023/03/28 00:39:52;;;;;;;7.10;1.40;;;4.80;99.90;;;;;;5031624;28;20041;-47
2023/03/28 00:42:22;;;;;;;3.45;1.20;;;4.80;99.90;;;;;;5031748;28;20034;-45
2023/03/28 00:44:55;;;;;;;5.22;1.45;;;4.80;99.90;;;;;;5018962;28;20510;-48
2023/03/28 00:47:27;;;;;;;5.82;2.30;;;4.80;99.90;;;;;;5031376;28;20049;-49
2023/03/28 00:50:04;;;;;;;9.60;1.67;;;4.70;99.90;;;;;;5031609;28;20025;-48
2023/03/28 00:52:38;;;;;;;5.82;1.40;;;4.80;99.90;;;;;;5031438;28;20064;-44
2023/03/28 00:55:08;;;;;;;6.40;1.50;;;4.70;99.90;;;;;;5031263;28;20030;-46
2023/03/28 00:57:37;;;;;;;5.18;1.50;;;4.70;99.90;;;;;;5031186;28;20025;-44
2023/03/28 01:00:05;;;;;;;4.95;1.40;;;4.70;99.90;;;;;;5031448;28;20124;-45
2023/03/28 01:02:31;;;;;;;6.55;1.40;;;4.70;99.90;;;;;;5031289;28;20029;-48
2023/03/28 01:05:00;;;;;;;9.18;1.45;;;4.70;99.90;;;;;;5031154;28;20041;-46
2023/03/28 01:07:32;;;;;;;3.47;1.20;;;4.80;99.90;;;;;;5013695;28;20033;-45
2023/03/28 01:09:58;;;;;;;3.35;1.10;;;4.80;99.90;;;;;;5030979;28;20572;-47
2023/03/28 01:12:24;;;;;;;4.03;1.02;;;4.80;99.90;;;;;;5030657;28;20083;-45
2023/03/28 01:14:50;;;;;;;1.85;1.10;;;4.90;99.90;;;;;;5030621;28;20060;-50
2023/03/28 01:17:15;;;;;;;2.53;1.15;;;5.00;99.90;;;;;;5030587;28;20064;-45
2023/03/28 01:19:57;;;;;;;2.60;1.10;;;5.00;99.90;;;;;;5030965;28;20041;-44
2023/03/28 01:22:32;;;;;;;3.90;1.10;;;5.20;99.90;;;;;;5030813;28;20048;-48
2023/03/28 01:25:40;;;;;;;3.33;1.30;;;5.30;99.90;;;;;;5030137;28;20328;-45
2023/03/28 01:28:05;;;;;;;4.50;1.00;;;5.40;99.90;;;;;;4974823;28;20124;-49
2023/03/28 01:30:47;;;;;;;4.38;1.50;;;5.50;99.90;;;;;;5030727;28;20060;-50
2023/03/28 01:34:00;;;;;;;11.15;1.83;;;5.60;99.90;;;;;;5030787;28;20022;-47
2023/03/28 01:36:53;;;;;;;3.90;1.20;;;5.70;99.90;;;;;;5019366;28;20033;-48
2023/03/28 01:39:46;;;;;;;8.10;1.40;;;5.90;99.90;;;;;;5030086;28;20022;-46
2023/03/28 01:42:33;;;;;;;7.57;1.67;;;5.90;99.90;;;;;;5030575;28;20037;-45
2023/03/28 01:45:09;;;;;;;4.25;1.02;;;6.00;99.90;;;;;;5019314;28;20033;-51
2023/03/28 01:47:47;;;;;;;4.43;1.20;;;6.00;99.90;;;;;;5030026;28;20119;-47
2023/03/28 01:50:18;;;;;;;2.13;0.93;;;6.00;99.90;;;;;;5030516;28;20017;-45
2023/03/28 01:53:16;;;;;;;3.60;1.20;;;6.00;99.90;;;;;;5030583;28;20184;-44
2023/03/28 01:56:00;;;;;;;5.65;1.40;;;6.10;99.90;;;;;;4977938;28;20038;-45
2023/03/28 01:58:50;;;;;;;5.32;1.30;;;6.10;99.90;;;;;;5018140;28;20478;-45
2023/03/28 02:01:21;;;;;;;5.60;1.15;;;6.10;99.90;;;;;;5030496;28;20025;-49
2023/03/28 02:03:51;;;;;;;3.22;1.27;;;6.10;99.90;;;;;;5030387;28;20038;-52
2023/03/28 02:06:20;;;;;;;8.77;1.42;;;6.20;99.90;;;;;;5030467;28;20053;-49
2023/03/28 02:08:48;;;;;;;6.50;1.30;;;6.30;99.90;;;;;;5030025;28;20481;-49
2023/03/28 02:11:13;;;;;;;5.07;1.30;;;6.30;99.90;;;;;;5030500;28;20029;-50
2023/03/28 02:13:45;;;;;;;6.40;1.25;;;6.40;99.90;;;;;;5030457;28;20044;-47
2023/03/28 02:16:12;;;;;;;3.17;1.25;;;6.40;99.90;;;;;;5030475;28;20044;-44
2023/03/28 02:18:43;;;;;;;8.05;1.45;;;6.50;99.90;;;;;;5028893;28;20390;-49
2023/03/28 02:21:22;;;;;;;5.65;1.23;;;6.50;99.90;;;;;;5030288;28;20033;-47
2023/03/28 02:23:51;;;;;;;6.13;1.20;;;6.50;99.90;;;;;;5030133;28;20029;-44
2023/03/28 02:26:18;;;;;;;5.17;1.53;;;6.50;99.90;;;;;;5033840;28;20474;-47
2023/03/28 02:28:45;;;;;;;6.05;1.52;;;6.60;99.90;;;;;;5033574;28;20365;-49
2023/03/28 02:31:12;;;;;;;4.25;1.30;;;6.60;99.90;;;;;;5033556;28;20025;-45
2023/03/28 02:33:45;;;;;;;5.82;1.40;;;6.60;99.90;;;;;;5033506;28;20585;-45
2023/03/28 02:36:20;;;;;;;6.88;1.48;;;6.60;99.90;;;;;;5033488;28;20048;-47
2023/03/28 02:39:06;;;;;;;6.20;1.55;;;6.60;99.90;;;;;;5033746;28;20048;-47
2023/03/28 02:41:34;;;;;;;5.88;1.15;;;6.50;99.90;;;;;;4983182;28;20124;-47
2023/03/28 02:44:17;;;;;;;8.73;2.25;;;6.50;99.90;;;;;;5031590;28;20017;-50
2023/03/28 02:46:54;;;;;;;6.88;1.50;;;6.50;99.90;;;;;;5033515;28;20128;-47
2023/03/28 02:49:29;;;;;;;6.93;1.35;;;6.50;99.90;;;;;;5033704;28;20022;-51
2023/03/28 02:52:20;;;;;;;4.85;1.42;;;6.50;99.90;;;;;;5033661;28;20028;-47
2023/03/28 02:55:02;;;;;;;7.00;1.40;;;6.50;99.90;;;;;;5021754;28;20478;-48
2023/03/28 02:58:09;;;;;;;7.28;1.48;;;6.50;99.90;;;;;;5033396;28;20045;-45
2023/03/28 03:00:35;;;;;;;8.07;1.75;;;6.50;99.90;;;;;;4952923;29;20042;-50
2023/03/28 03:03:02;;;;;;;4.47;1.60;;;6.50;99.90;;;;;;4953057;29;20201;-47
2023/03/28 03:05:28;;;;;;;7.53;1.45;;;6.50;99.90;;;;;;4993543;28;20509;-46
2023/03/28 03:07:55;;;;;;;10.10;1.88;;;6.50;99.90;;;;;;5032711;28;20030;-49
2023/03/28 03:10:21;;;;;;;7.07;1.80;;;6.50;99.90;;;;;;5033035;28;20040;-51
2023/03/28 03:12:47;;;;;;;6.57;1.58;;;6.50;99.90;;;;;;5032982;28;20121;-47
2023/03/28 03:15:15;;;;;;;5.50;1.50;;;6.50;99.90;;;;;;5033198;28;20085;-47
2023/03/28 03:17:41;;;;;;;9.50;1.90;;;6.50;99.90;;;;;;5033058;28;20034;-46
2023/03/28 03:20:08;;;;;;;5.93;1.60;;;6.50;99.90;;;;;;5033098;28;20111;-51
2023/03/28 03:22:35;;;;;;;6.78;1.63;;;6.40;99.90;;;;;;5033206;28;20117;-44
2023/03/28 03:25:05;;;;;;;5.50;1.65;;;6.50;99.90;;;;;;5032902;28;20021;-45
2023/03/28 03:27:32;;;;;;;6.22;1.55;;;6.40;99.90;;;;;;5032814;28;20033;-46
2023/03/28 03:29:58;;;;;;;7.80;1.67;;;6.40;99.90;;;;;;5033029;28;20025;-46
2023/03/28 03:32:24;;;;;;;10.73;1.85;;;6.40;99.90;;;;;;5032896;28;20079;-50
2023/03/28 03:34:50;;;;;;;7.05;2.38;;;6.50;99.90;;;;;;5032869;28;20036;-44
2023/03/28 03:37:16;;;;;;;6.78;1.88;;;6.40;99.90;;;;;;5031790;28;20108;-48
2023/03/28 03:39:43;;;;;;;6.93;2.28;;;6.40;99.90;;;;;;5032692;28;20072;-45
2023/03/28 03:42:09;;;;;;;7.93;1.77;;;6.40;99.90;;;;;;5032528;28;20052;-54
2023/03/28 03:44:35;;;;;;;6.20;1.65;;;6.50;99.90;;;;;;5032672;28;20101;-50
2023/03/28 03:47:01;;;;;;;7.95;1.50;;;6.50;99.90;;;;;;5030589;28;20128;-54
2023/03/28 03:49:27;;;;;;;6.30;1.75;;;6.50;99.90;;;;;;5032174;28;20025;-53
2023/03/28 03:51:52;;;;;;;7.18;1.92;;;6.50;99.90;;;;;;5014787;28;20083;-57
2023/03/28 03:54:18;;;;;;;8.25;1.98;;;6.50;99.90;;;;;;5029683;28;20034;-52
2023/03/28 03:56:44;;;;;;;4.72;1.70;;;6.50;99.90;;;;;;5032421;28;20544;-52
2023/03/28 03:59:10;;;;;;;6.35;1.40;;;6.60;99.90;;;;;;5032270;28;20485;-48
2023/03/28 04:01:38;;;;;;;7.35;1.60;;;6.60;99.90;;;;;;5032248;28;20112;-47
2023/03/28 04:04:06;;;;;;;8.88;1.58;;;6.70;99.90;;;;;;5014650;28;20032;-49
2023/03/28 04:06:32;;;;;;;14.10;1.77;;;6.60;99.90;;;;;;5031830;28;20060;-52
2023/03/28 04:08:57;;;;;;;7.55;2.13;;;6.70;99.90;;;;;;5031824;28;20065;-52
2023/03/28 04:11:23;;;;;;;5.47;1.45;;;6.70;99.90;;;;;;5031810;28;20026;-47
2023/03/28 04:13:49;;;;;;;5.38;2.00;;;6.80;99.90;;;;;;5031941;28;20113;-49
2023/03/28 04:16:14;;;;;;;7.13;1.95;;;6.80;99.90;;;;;;5031815;28;20037;-47
2023/03/28 04:18:44;;;;;;;9.98;2.35;;;6.90;99.90;;;;;;5031825;28;20093;-53
2023/03/28 04:21:11;;;;;;;9.75;1.42;;;6.90;99.90;;;;;;5031619;28;20505;-44
2023/03/28 04:23:42;;;;;;;8.10;1.65;;;6.90;99.90;;;;;;5031877;28;20080;-51
2023/03/28 04:26:08;;;;;;;;;;;6.90;99.90;;;;;;5032008;28;20013;-46
2023/03/28 04:28:33;;;;;;;9.50;2.28;;;6.90;99.90;;;;;;5031773;28;19917;-44
2023/03/28 04:30:59;;;;;;;6.97;1.88;;;6.90;99.90;;;;;;5031537;28;20029;-45
2023/03/28 04:33:26;;;;;;;9.52;1.52;;;6.90;99.90;;;;;;5031648;28;20021;-47
2023/03/28 04:35:58;;;;;;;7.18;1.77;;;6.90;99.90;;;;;;5031296;28;20052;-47
2023/03/28 04:38:25;;;;;;;6.55;1.52;;;7.00;99.90;;;;;;5022640;28;20060;-44
2023/03/28 04:40:56;;;;;;;5.75;1.63;;;7.00;99.90;;;;;;5031370;28;20069;-52
2023/03/28 04:43:25;;;;;;;5.40;1.50;;;7.00;99.90;;;;;;5026541;28;20549;-46
2023/03/28 04:45:51;;;;;;;7.95;1.65;;;6.90;99.90;;;;;;5031448;28;20022;-50
2023/03/28 04:48:17;;;;;;;7.90;1.38;;;7.00;99.90;;;;;;5031095;28;20084;-45
2023/03/28 04:50:43;;;;;;;9.30;1.80;;;6.90;99.90;;;;;;5031267;28;20025;-49
2023/03/28 04:53:08;;;;;;;7.13;1.50;;;7.00;99.90;;;;;;5031131;28;20025;-44
2023/03/28 04:55:34;;;;;;;5.50;1.98;;;7.00;99.90;;;;;;5031268;28;20409;-52
2023/03/28 04:57:59;;;;;;;6.45;1.92;;;7.00;99.90;;;;;;5031121;28;20034;-48
2023/03/28 05:00:26;;;;;;;3.30;1.50;;;7.00;99.90;;;;;;5031035;28;20033;-45
2023/03/28 05:02:55;;;;;;;5.57;1.35;;;7.00;99.90;;;;;;5031165;28;20037;-52
2023/03/28 05:05:21;;;;;;;8.88;1.70;;;7.00;99.90;;;;;;5031076;28;20033;-52
2023/03/28 05:07:47;;;;;;;6.55;2.17;;;7.00;99.90;;;;;;5012730;28;20060;-46
2023/03/28 05:10:13;;;;;;;5.60;1.60;;;7.00;99.90;;;;;;5031065;28;20022;-47
2023/03/28 05:12:38;;;;;;;6.88;1.85;;;7.00;99.90;;;;;;5030590;28;20386;-48
2023/03/28 05:15:05;;;;;;;9.93;2.05;;;7.00;99.90;;;;;;5030884;28;20032;-45
2023/03/28 05:17:31;;;;;;;6.75;1.83;;;7.10;99.90;;;;;;5030866;28;20572;-44
2023/03/28 05:19:57;;;;;;;7.82;1.77;;;7.10;99.90;;;;;;5013313;28;20111;-49
2023/03/28 05:22:22;;;;;;;11.75;2.33;;;7.10;99.90;;;;;;5030680;28;20037;-45
2023/03/28 05:24:48;;;;;;;9.07;2.28;;;7.10;99.90;;;;;;5030946;28;20025;-50
2023/03/28 05:27:14;;;;;;;9.45;1.90;;;7.00;99.90;;;;;;5030669;28;20549;-49
2023/03/28 05:29:39;;;;;;;9.48;1.60;;;7.10;99.90;;;;;;5030595;28;20021;-47
2023/03/28 05:32:05;;;;;;;6.28;1.92;;;7.00;99.90;;;;;;5030808;28;20028;-50
2023/03/28 05:34:33;;;;;;;5.28;2.08;;;7.00;99.90;;;;;;5030693;28;20028;-50
2023/03/28 05:36:58;;;;;;;6.57;2.22;;;6.90;99.90;;;;;;5030210;28;20025;-51
2023/03/28 05:39:24;;;;;;;6.93;2.08;;;6.90;99.90;;;;;;5030464;28;20029;-48
2023/03/28 05:41:50;;;;;;;10.43;2.47;;;6.80;99.90;;;;;;5030256;28;20091;-46
2023/03/28 05:44:15;;;;;;;9.00;2.35;;;6.70;99.90;;;;;;5030680;28;20029;-45
2023/03/28 05:46:41;;;;;;;7.55;2.30;;;6.70;99.90;;;;;;5030446;28;20048;-47
2023/03/28 05:49:07;;;;;;;10.13;2.22;;;6.60;99.90;;;;;;5030515;28;20052;-53
2023/03/28 05:51:32;;;;;;;11.38;2.38;;;6.60;99.90;;;;;;5030478;28;20432;-52
2023/03/28 05:53:58;;;;;;;8.43;2.63;;;6.60;99.90;;;;;;5030551;28;20427;-45
2023/03/28 05:56:23;;;;;;;8.13;2.70;;;6.60;99.90;;;;;;5030524;28;20485;-50
2023/03/28 05:58:49;;;;;;;7.85;2.20;;;6.50;99.90;;;;;;5030189;28;20025;-46
2023/03/28 06:01:16;;;;;;;8.75;2.42;;;6.50;99.90;;;;;;5015826;28;20397;-46
2023/03/28 06:03:45;;;;;;;12.23;2.70;;;6.50;99.90;;;;;;5016012;28;20068;-52
2023/03/28 06:06:10;;;;;;;8.57;2.22;;;6.50;99.90;;;;;;5016282;28;20037;-51
2023/03/28 06:08:37;;;;;;;8.90;2.50;;;6.50;99.90;;;;;;5034294;28;20041;-49
2023/03/28 06:11:03;;;;;;;7.57;2.33;;;6.60;99.90;;;;;;5034375;28;20021;-49
2023/03/28 06:13:29;;;;;;;10.10;2.97;;;6.60;99.90;;;;;;5034355;28;20030;-46
2023/03/28 06:15:55;;;;;;;7.72;2.75;;;6.60;99.90;;;;;;5034005;28;20100;-44
2023/03/28 06:18:20;;;;;;;8.60;3.70;;;6.60;99.90;;;;;;5034264;28;20124;-48
2023/03/28 06:20:46;;;;;;;7.22;2.75;;;6.60;99.90;;;;;;5034352;28;20032;-55
2023/03/28 06:23:12;;;;;;;13.95;2.92;;;6.70;99.90;;;;;;5034160;28;20079;-47
2023/03/28 06:25:37;;;;;;;10.55;3.13;;;6.70;99.90;;;;;;5034165;28;20072;-49
2023/03/28 06:28:03;;;;;;;7.93;3.10;;;6.70;99.90;;;;;;5033744;28;20091;-45
2023/03/28 06:30:28;;;;;;;10.65;3.13;;;6.70;99.90;;;;;;5034198;28;20367;-51
2023/03/28 06:32:54;;;;;;;12.40;3.35;;;6.80;99.90;;;;;;5033952;28;20064;-48
2023/03/28 06:35:20;;;;;;;13.13;3.22;;;6.80;99.90;;;;;;5033688;28;20033;-45
2023/03/28 06:37:45;;;;;;;15.00;3.63;;;6.80;99.90;;;;;;5033471;28;20029;-47
2023/03/28 06:40:11;;;;;;;11.98;3.25;;;6.80;99.90;;;;;;5033515;28;20053;-46
2023/03/28 06:42:36;;;;;;;9.55;2.60;;;6.80;99.90;;;;;;5033981;28;20806;-48
2023/03/28 06:45:02;;;;;;;11.98;3.63;;;6.90;99.90;;;;;;5033806;28;20456;-53
2023/03/28 06:47:29;;;;;;;13.00;3.17;;;7.00;99.90;;;;;;5033531;28;20037;-50
2023/03/28 06:49:54;;;;;;;10.18;3.42;;;7.00;99.90;;;;;;5033800;28;20116;-47
2023/03/28 06:52:22;;;;;;;14.57;3.63;;;7.00;99.90;;;;;;5033488;28;20113;-50
2023/03/28 06:54:48;;;;;;;10.43;2.80;;;7.00;99.90;;;;;;5033609;28;20017;-49
2023/03/28 06:57:14;;;;;;;8.57;3.40;;;7.00;99.90;;;;;;5033177;28;20047;-52
2023/03/28 06:59:40;;;;;;;9.88;2.92;;;7.00;99.90;;;;;;5033162;28;20714;-50
2023/03/28 07:02:08;;;;;;;9.77;3.38;;;7.00;99.90;;;;;;5033373;28;20026;-51
2023/03/28 07:04:34;;;;;;;19.65;3.65;;;7.00;99.90;;;;;;5033116;28;20045;-50
2023/03/28 07:07:00;;;;;;;10.77;3.10;;;7.00;99.90;;;;;;5033261;28;20139;-47
2023/03/28 07:09:26;;;;;;;10.27;3.40;;;7.00;99.90;;;;;;5032971;28;20029;-53
2023/03/28 07:11:51;;;;;;;11.48;2.83;;;7.10;99.90;;;;;;5014302;28;20449;-49
2023/03/28 07:14:17;;;;;;;9.55;3.67;;;7.10;99.90;;;;;;5033103;28;20056;-48
2023/03/28 07:16:43;;;;;;;14.98;2.90;;;7.20;99.90;;;;;;5032715;28;20018;-47
2023/03/28 07:19:09;;;;;;;10.68;3.10;;;7.20;99.90;;;;;;5032959;28;20032;-46
2023/03/28 07:21:35;;;;;;;12.50;2.67;;;7.20;99.90;;;;;;5032665;28;20378;-48
2023/03/28 07:24:01;;;;;;;12.23;2.45;;;7.30;99.90;;;;;;5032690;28;20108;-52
2023/03/28 07:26:26;;;;;;;10.50;3.03;;;7.50;99.90;;;;;;5032633;28;20083;-50
2023/03/28 07:28:55;;;;;;;12.13;3.15;;;7.60;99.90;;;;;;5032783;28;20037;-45
2023/03/28 07:31:21;;;;;;;16.67;3.00;;;7.70;99.90;;;;;;5032195;28;20037;-50
2023/03/28 07:33:50;;;;;;;11.45;2.28;;;7.80;99.90;;;;;;5031892;28;20014;-45
2023/03/28 07:36:18;;;;;;;15.20;2.83;;;7.90;99.90;;;;;;5032143;28;20057;-47
2023/03/28 07:38:44;;;;;;;11.77;2.22;;;8.00;99.90;;;;;;5008236;28;20018;-46
2023/03/28 07:41:10;;;;;;;12.80;2.47;;;8.00;99.90;;;;;;5032458;28;20049;-51
2023/03/28 07:43:38;;;;;;;8.68;2.25;;;8.10;99.90;;;;;;5032588;28;20433;-48
2023/03/28 07:46:06;;;;;;;15.55;2.63;;;8.00;99.90;;;;;;5032341;28;20079;-46
2023/03/28 07:48:33;;;;;;;13.73;2.47;;;8.00;99.90;;;;;;5032233;28;20095;-47
2023/03/28 07:51:00;;;;;;;13.77;2.65;;;7.90;99.90;;;;;;5032508;28;20025;-53
2023/03/28 07:53:26;;;;;;;9.85;2.10;;;7.90;99.90;;;;;;5032313;28;20540;-49
2023/03/28 07:55:52;;;;;;;8.40;2.20;;;7.90;99.90;;;;;;5032293;28;20585;-48
2023/03/28 07:58:18;;;;;;;9.85;2.50;;;7.90;99.90;;;;;;5032286;28;20100;-47
2023/03/28 08:00:44;;;;;;;8.32;2.15;;;7.90;99.90;;;;;;5032157;28;20028;-53
2023/03/28 08:03:11;;;;;;;12.23;2.55;;;7.90;99.90;;;;;;5032354;28;20099;-54
2023/03/28 08:05:37;;;;;;;15.45;2.75;;;7.90;99.90;;;;;;5032113;28;20028;-46
2023/03/28 08:08:04;;;;;;;9.45;2.17;;;7.90;99.90;;;;;;5031667;28;20041;-50
2023/03/28 08:10:30;;;;;;;11.02;2.30;;;7.90;99.90;;;;;;5032121;28;20139;-51
2023/03/28 08:12:56;;;;;;;12.85;3.35;;;8.00;99.90;;;;;;5031960;28;20033;-46
2023/03/28 08:15:21;;;;;;;9.85;2.08;;;8.00;99.90;;;;;;5031888;28;20033;-46
2023/03/28 08:17:47;;;;;;;7.57;2.10;;;8.00;99.90;;;;;;5031797;28;20025;-49
2023/03/28 08:20:13;;;;;;;13.18;2.47;;;7.90;99.90;;;;;;5032089;28;20443;-52
2023/03/28 08:22:39;;;;;;;7.93;2.05;;;7.90;99.90;;;;;;5031701;28;20053;-48
2023/03/28 08:25:06;;;;;;;11.18;2.03;;;7.90;99.90;;;;;;5031730;28;20545;-49
2023/03/28 08:27:32;;;;;;;8.00;2.05;;;8.00;99.90;;;;;;5027507;28;20553;-44
2023/03/28 08:29:58;;;;;;;11.27;2.20;;;8.00;99.90;;;;;;5014005;28;20030;-50
2023/03/28 08:32:24;;;;;;;9.80;2.42;;;8.00;99.90;;;;;;5031994;28;20474;-46
2023/03/28 08:34:50;;;;;;;10.90;2.13;;;8.00;99.90;;;;;;5031673;28;20025;-46
2023/03/28 08:37:15;;;;;;;8.30;2.08;;;8.10;99.90;;;;;;5031650;28;20116;-49
2023/03/28 08:39:41;;;;;;;10.88;2.28;;;8.10;99.90;;;;;;5031642;28;20044;-47
2023/03/28 08:42:31;;;;;;;11.65;2.15;;;8.10;99.90;;;;;;5030995;28;20029;-43
2023/03/28 08:45:13;;;;;;;10.85;2.17;;;8.20;99.90;;;;;;5031513;28;20048;-44
2023/03/28 08:48:03;;;;;;;9.48;2.00;;;8.20;99.90;;;;;;5031249;28;20033;-51
2023/03/28 08:50:33;;;;;;;7.93;2.10;;;8.10;99.90;;;;;;5031250;28;20021;-44
2023/03/28 08:53:00;;;;;;;10.95;1.85;;;8.10;99.90;;;;;;5031375;28;20479;-51
2023/03/28 08:55:37;;;;;;;10.77;2.00;;;8.10;99.90;;;;;;5031142;28;20401;-49
2023/03/28 08:58:04;;;;;;;9.80;1.90;;;8.10;99.90;;;;;;5031318;28;20075;-45
2023/03/28 09:00:33;;;;;;;9.73;2.10;;;8.10;99.90;;;;;;5031014;28;20086;-46
2023/03/28 09:02:59;;;;;;;10.88;2.10;;;8.20;99.90;;;;;;5030691;28;20025;-44
2023/03/28 09:05:46;;;;;;;9.50;2.00;;;8.20;99.90;;;;;;5026832;28;20024;-51
2023/03/28 09:08:33;;;;;;;7.82;1.83;;;8.20;99.90;;;;;;5031036;28;20065;-48
2023/03/28 09:11:18;;;;;;;12.68;2.35;;;8.30;99.90;;;;;;5030960;28;20097;-50
2023/03/28 09:14:10;;;;;;;7.93;1.90;;;8.30;99.90;;;;;;5030992;28;20022;-50
2023/03/28 09:17:08;;;;;;;7.50;1.55;;;8.30;99.90;;;;;;5025847;28;20037;-45
2023/03/28 09:19:58;;;;;;;8.43;1.60;;;8.40;99.90;;;;;;5029837;28;20029;-44
2023/03/28 09:22:53;;;;;;;9.35;2.03;;;8.50;99.90;;;;;;5030542;28;20121;-49
2023/03/28 09:25:54;;;;;;;8.05;1.83;;;8.60;99.90;;;;;;5020944;28;20063;-46
2023/03/28 09:28:25;;;;;;;13.55;2.75;;;8.70;99.90;;;;;;5028094;28;20037;-43
2023/03/28 09:30:52;;;;;;;9.30;2.22;;;8.80;99.90;;;;;;5012776;28;20032;-46
2023/03/28 09:33:32;;;;;;;5.15;1.88;;;8.80;99.90;;;;;;5030329;28;20108;-45
2023/03/28 09:35:57;;;;;;;10.40;1.40;;;8.90;99.90;;;;;;5030061;28;20022;-44
2023/03/28 09:38:30;;;;;;;11.20;2.35;;;8.90;99.90;;;;;;5030143;28;20033;-47
2023/03/28 09:40:58;;;;;;;9.32;1.67;;;8.90;99.90;;;;;;5030228;28;20065;-49
2023/03/28 09:43:31;;;;;;;11.10;1.90;;;8.80;99.90;;;;;;5030493;28;20025;-51
2023/03/28 09:46:10;;;;;;;10.45;1.83;;;8.70;99.90;;;;;;5030485;28;20129;-51
2023/03/28 09:48:37;;;;;;;6.57;1.55;;;8.60;99.90;;;;;;5012150;28;20049;-45
2023/03/28 09:51:05;;;;;;;7.07;2.40;;;8.60;99.90;;;;;;5030201;28;20032;-43
2023/03/28 09:53:36;;;;;;;8.77;1.85;;;8.50;99.90;;;;;;4999327;28;20104;-47
2023/03/28 09:56:23;;;;;;;11.65;2.35;;;8.50;99.90;;;;;;5018653;28;20053;-49
2023/03/28 09:58:51;;;;;;;11.80;2.63;;;8.50;99.90;;;;;;5020214;28;20026;-48
2023/03/28 10:01:39;;;;;;;8.85;1.77;;;8.50;99.90;;;;;;5030192;28;20021;-49
2023/03/28 10:04:14;;;;;;;8.15;1.95;;;8.40;99.90;;;;;;5029711;28;20530;-44
2023/03/28 10:06:43;;;;;;;6.65;1.75;;;8.40;99.90;;;;;;5030135;28;20034;-48
2023/03/28 10:09:19;;;;;;;11.02;1.90;;;8.30;99.90;;;;;;5030251;28;20025;-55
2023/03/28 10:11:58;;;;;;;8.23;1.67;;;8.30;99.90;;;;;;5029411;28;20034;-53
2023/03/28 10:14:39;;;;;;;6.97;1.60;;;8.20;99.90;;;;;;5029753;28;20168;-47
2023/03/28 10:17:06;;;;;;;5.53;1.85;;;8.20;99.90;;;;;;5028261;28;20040;-47
2023/03/28 10:19:36;;;;;;;5.75;1.38;;;8.20;99.90;;;;;;5030488;28;20022;-44
2023/03/28 10:22:06;;;;;;;;;;;8.10;99.90;;;;;;5030593;28;20029;-43
2023/03/28 10:24:32;;;;;;;8.40;1.90;;;8.20;99.90;;;;;;5030299;28;19905;-43
2023/03/28 10:27:15;;;;;;;4.57;1.60;;;8.10;99.90;;;;;;5030019;28;20037;-55
2023/03/28 10:29:41;;;;;;;8.85;2.00;;;8.10;99.90;;;;;;5024637;28;20414;-49
2023/03/28 10:32:11;;;;;;;8.98;2.00;;;8.10;99.90;;;;;;5029941;28;20103;-46
2023/03/28 10:34:37;;;;;;;7.40;1.83;;;8.10;99.90;;;;;;5022345;28;20025;-50
2023/03/28 10:37:20;;;;;;;8.52;2.03;;;8.00;99.90;;;;;;5029891;28;20037;-50
2023/03/28 10:40:05;;;;;;;4.63;1.40;;;8.00;99.90;;;;;;5023361;28;20037;-43
2023/03/28 10:42:42;;;;;;;6.07;2.00;;;8.00;99.90;;;;;;5030128;28;20052;-49
2023/03/28 10:45:41;;;;;;;7.22;2.13;;;8.00;99.90;;;;;;5029935;28;20367;-51
2023/03/28 10:48:17;;;;;;;8.03;1.67;;;7.90;99.90;;;;;;5015048;28;20041;-43
2023/03/28 10:50:57;;;;;;;10.80;1.77;;;7.90;99.90;;;;;;5033337;28;20291;-44
2023/03/28 10:53:40;;;;;;;9.55;2.17;;;7.90;99.90;;;;;;5027141;28;20087;-45
2023/03/28 10:56:20;;;;;;;11.90;2.13;;;7.90;99.90;;;;;;5033544;28;20018;-43
2023/03/28 10:59:01;;;;;;;7.78;1.98;;;8.00;99.90;;;;;;5033389;28;20037;-46
2023/03/28 11:01:48;;;;;;;9.75;2.00;;;8.10;99.90;;;;;;5033433;28;20112;-49
2023/03/28 11:04:17;;;;;;;5.43;1.90;;;8.20;99.90;;;;;;5032844;28;20589;-46
2023/03/28 11:06:58;;;;;;;8.43;2.03;;;8.20;99.90;;;;;;5032859;28;20120;-49
2023/03/28 11:09:34;;;;;;;6.80;2.05;;;8.20;99.90;;;;;;5027120;28;20112;-49
2023/03/28 11:12:36;;;;;;;10.18;1.92;;;8.30;99.90;;;;;;5022278;28;20026;-49
2023/03/28 11:15:27;;;;;;;6.32;2.05;;;8.20;99.90;;;;;;5022024;28;20017;-54
2023/03/28 11:18:10;;;;;;;10.38;1.83;;;8.30;99.90;;;;;;5033007;28;20028;-45
2023/03/28 11:20:49;;;;;;;8.15;2.00;;;8.40;99.90;;;;;;5023295;28;20026;-46
2023/03/28 11:23:23;;;;;;;7.50;1.97;;;8.40;99.90;;;;;;5030511;28;20029;-43
2023/03/28 11:26:03;;;;;;;6.63;2.00;;;8.40;99.90;;;;;;5015027;28;20809;-45
2023/03/28 11:28:34;;;;;;;7.90;2.00;;;8.50;99.90;;;;;;5031450;28;20026;-44
2023/03/28 11:31:00;;;;;;;5.70;1.50;;;8.40;99.90;;;;;;5032726;28;20073;-46
2023/03/28 11:33:49;;;;;;;4.32;1.65;;;8.30;99.90;;;;;;5013284;28;20079;-51
2023/03/28 11:36:20;;;;;;;8.70;1.67;;;8.20;99.90;;;;;;5015431;28;20037;-45
2023/03/28 11:38:51;;;;;;;6.45;1.63;;;8.10;99.90;;;;;;5032554;28;20028;-49
2023/03/28 11:41:25;;;;;;;10.77;1.60;;;8.10;99.90;;;;;;5032508;28;20056;-44
2023/03/28 11:43:54;;;;;;;8.98;1.90;;;8.10;99.90;;;;;;5032269;28;20414;-44
2023/03/28 11:46:36;;;;;;;9.65;1.80;;;8.00;99.90;;;;;;5032638;28;20082;-45
2023/03/28 11:49:21;;;;;;;8.07;1.55;;;8.00;99.90;;;;;;5032353;28;20029;-49
2023/03/28 11:52:14;;;;;;;4.97;1.60;;;7.90;99.90;;;;;;5031749;28;20033;-48
2023/03/28 11:55:16;;;;;;;8.00;2.00;;;7.80;99.90;;;;;;5002753;28;20036;-47
2023/03/28 11:57:53;;;;;;;7.38;1.83;;;7.80;99.90;;;;;;5021120;28;20040;-46
2023/03/28 12:00:28;;;;;;;6.50;1.92;;;7.70;99.90;;;;;;5032013;28;20018;-57
2023/03/28 12:03:22;;;;;;;11.68;2.83;;;7.80;99.90;;;;;;5032125;28;20079;-54
2023/03/28 12:05:59;;;;;;;7.90;2.03;;;7.70;99.90;;;;;;5031855;28;20030;-52
2023/03/28 12:08:37;;;;;;;5.53;1.83;;;7.70;99.90;;;;;;5031930;28;20040;-52
2023/03/28 12:11:09;;;;;;;7.30;2.20;;;7.80;99.90;;;;;;5031216;28;20017;-49
2023/03/28 12:13:56;;;;;;;5.90;2.00;;;7.80;99.90;;;;;;5031945;28;20139;-42
2023/03/28 12:16:35;;;;;;;10.07;1.63;;;8.00;99.90;;;;;;5020998;28;20021;-48
2023/03/28 12:19:05;;;;;;;10.07;2.10;;;8.00;99.90;;;;;;5031726;28;20540;-44
2023/03/28 12:21:40;;;;;;;8.43;2.40;;;8.10;99.90;;;;;;5031508;28;20026;-44
2023/03/28 12:24:14;;;;;;;8.98;1.90;;;8.20;99.90;;;;;;5031566;28;20071;-47
2023/03/28 12:26:43;;;;;;;4.38;2.00;;;8.20;99.90;;;;;;5031136;28;20022;-45
2023/03/28 12:29:18;;;;;;;6.45;2.03;;;8.30;99.90;;;;;;5031218;28;20500;-45
2023/03/28 12:31:50;;;;;;;6.45;1.88;;;8.50;99.90;;;;;;5031296;28;20060;-44
2023/03/28 12:34:33;;;;;;;11.45;1.83;;;8.70;99.90;;;;;;5029797;28;20539;-43
2023/03/28 12:37:25;;;;;;;11.25;1.73;;;8.90;99.90;;;;;;5031379;28;20022;-45
2023/03/28 12:39:58;;;;;;;8.25;1.80;;;9.10;99.90;;;;;;5031119;28;20045;-45
2023/03/28 12:42:27;;;;;;;7.50;1.65;;;9.30;99.90;;;;;;5031086;28;20076;-45
2023/03/28 12:45:00;;;;;;;6.93;1.58;;;9.50;99.90;;;;;;5031234;28;20486;-44
2023/03/28 12:47:34;;;;;;;8.07;1.67;;;9.50;99.90;;;;;;5031171;28;20045;-45
2023/03/28 12:50:11;;;;;;;2.65;1.20;;;9.50;99.90;;;;;;5029741;28;20035;-51
2023/03/28 12:52:37;;;;;;;5.13;1.40;;;9.50;99.90;;;;;;5031607;28;20025;-45
2023/03/28 12:55:06;;;;;;;6.15;1.50;;;9.40;99.90;;;;;;5030979;28;20021;-46
2023/03/28 12:57:47;;;;;;;4.93;1.40;;;9.40;99.90;;;;;;5031539;28;20040;-53
2023/03/28 13:00:27;;;;;;;4.55;1.60;;;9.40;99.90;;;;;;5013315;28;20021;-45
2023/03/28 13:03:03;;;;;;;8.93;1.80;;;9.60;99.90;;;;;;5030830;28;20836;-45
2023/03/28 13:06:05;;;;;;;9.15;1.90;;;9.70;99.90;;;;;;5028506;28;20056;-49
2023/03/28 13:08:43;;;;;;;6.03;1.50;;;9.80;99.90;;;;;;4997839;28;20045;-46
2023/03/28 13:11:28;;;;;;;6.25;1.60;;;9.80;99.90;;;;;;5027834;28;20429;-49
2023/03/28 13:14:25;;;;;;;5.30;1.30;;;9.60;99.90;;;;;;5030811;28;20036;-46
2023/03/28 13:16:59;;;;;;;7.63;1.70;;;9.60;99.90;;;;;;5021683;28;20474;-51
2023/03/28 13:19:54;;;;;;;9.85;1.92;;;9.50;99.90;;;;;;5030602;28;20033;-46